Time;durP1;ratioP1;P1;durP2;ratioP2;P2;SDS_P1;SDS_P2;PMS_P1;PMS_P2;Temp;Humidity;BMP_temperature;BMP_pressure;BME280_temperature;BME280_humidity;BME280_pressure;Samples;Min_cycle;Max_cycle;Signal;HPM_P1;HPM_P2
2023/12/19 00:01:50;;;;;;;50.35;28.62;;;;;;;5.71;100.00;100755.94;1702081;80;27300;-62
2023/12/19 00:04:17;;;;;;;48.02;27.95;;;;;;;5.71;100.00;100756.73;1736831;81;26072;-61
2023/12/19 00:06:51;;;;;;;49.27;28.98;;;;;;;5.70;100.00;100756.98;1715096;81;25796;-61
2023/12/19 00:09:17;;;;;;;50.00;27.95;;;;;;;5.68;100.00;100747.86;1732282;80;26629;-61
2023/12/19 00:11:46;;;;;;;47.33;27.22;;;;;;;5.67;100.00;100748.95;1733813;81;25832;-61
2023/12/19 00:14:13;;;;;;;46.08;28.55;;;;;;;5.66;100.00;100745.98;1733430;81;26870;-59
2023/12/19 00:16:41;;;;;;;44.63;26.00;;;;;;;5.66;100.00;100737.93;1684377;84;26034;-60
2023/12/19 00:19:09;;;;;;;44.75;26.37;;;;;;;5.66;100.00;100739.27;1725535;82;25808;-59
2023/12/19 00:21:36;;;;;;;46.37;27.55;;;;;;;5.66;100.00;100741.16;1723000;82;25871;-59
2023/12/19 00:24:04;;;;;;;47.90;27.10;;;;;;;5.64;100.00;100728.55;1669265;84;25108;-58
2023/12/19 00:26:30;;;;;;;45.38;27.67;;;;;;;5.63;100.00;100728.27;1691233;83;27391;-59
2023/12/19 00:28:58;;;;;;;48.05;26.23;;;;;;;5.59;100.00;100729.33;1687256;82;25839;-58
2023/12/19 00:31:26;;;;;;;43.38;26.93;;;;;;;5.58;100.00;100723.16;1681219;83;25756;-62
2023/12/19 00:33:54;;;;;;;40.65;23.92;;;;;;;5.55;100.00;100710.78;1701586;83;26278;-58
2023/12/19 00:36:23;;;;;;;43.73;26.27;;;;;;;5.52;100.00;100704.09;1693055;83;25604;-59
2023/12/19 00:38:51;;;;;;;44.23;25.12;;;;;;;5.52;100.00;100703.29;1717160;82;27726;-59
2023/12/19 00:41:20;;;;;;;45.17;24.40;;;;;;;5.51;100.00;100700.33;1706170;81;25463;-60
2023/12/19 00:43:47;;;;;;;45.87;26.23;;;;;;;5.49;100.00;100695.22;1699281;83;25840;-60
2023/12/19 00:46:14;;;;;;;47.20;25.23;;;;;;;5.48;100.00;100704.87;1706983;82;25834;-57
2023/12/19 00:48:42;;;;;;;45.58;24.85;;;;;;;5.46;100.00;100698.42;1695855;82;25392;-57
2023/12/19 00:51:10;;;;;;;47.53;26.00;;;;;;;5.45;100.00;100694.15;1695600;82;27308;-59
2023/12/19 00:53:38;;;;;;;42.33;23.83;;;;;;;5.45;100.00;100689.30;1698561;82;25769;-59
2023/12/19 00:56:11;;;;;;;41.23;24.10;;;;;;;5.42;100.00;100684.73;1685640;82;25449;-60
2023/12/19 00:58:40;;;;;;;43.95;24.30;;;;;;;5.42;100.00;100672.66;1693312;83;25773;-60
2023/12/19 01:01:07;;;;;;;39.65;24.18;;;;;;;5.42;100.00;100659.80;1657023;84;25740;-58
2023/12/19 01:03:35;;;;;;;39.92;23.07;;;;;;;5.41;100.00;100638.05;1702051;82;28055;-58
2023/12/19 01:06:07;;;;;;;43.78;24.30;;;;;;;5.39;100.00;100641.54;1687937;83;25928;-58
2023/12/19 01:08:35;;;;;;;40.10;23.67;;;;;;;5.38;100.00;100681.50;1703125;81;25571;-60
2023/12/19 01:11:02;;;;;;;35.25;22.67;;;;;;;5.38;100.00;100681.50;1693996;83;26161;-59
2023/12/19 01:13:30;;;;;;;38.15;21.65;;;;;;;5.37;100.00;100685.27;1705586;82;25796;-59
2023/12/19 01:15:56;;;;;;;40.40;20.88;;;;;;;5.36;100.00;100675.59;1712536;81;27300;-60
2023/12/19 01:18:23;;;;;;;32.15;20.68;;;;;;;5.36;100.00;100660.84;1699470;83;25832;-54
2023/12/19 01:20:50;;;;;;;32.95;20.15;;;;;;;5.36;100.00;100667.03;1707282;81;25884;-54
2023/12/19 01:23:18;;;;;;;32.80;19.50;;;;;;;5.34;100.00;100662.45;1699602;82;25716;-55
2023/12/19 01:25:45;;;;;;;33.25;20.23;;;;;;;5.32;100.00;100655.20;1692684;83;25559;-53
2023/12/19 01:28:14;;;;;;;31.57;18.77;;;;;;;5.32;100.00;100646.36;1712341;82;28378;-53
2023/12/19 01:30:44;;;;;;;29.63;18.15;;;;;;;5.32;100.00;100646.36;1696576;82;26015;-55
2023/12/19 01:33:11;;;;;;;31.07;17.82;;;;;;;5.31;100.00;100642.88;1705600;82;25812;-54
2023/12/19 01:35:38;;;;;;;27.05;18.17;;;;;;;5.32;100.00;100645.02;1693070;82;26359;-54
2023/12/19 01:38:06;;;;;;;29.92;18.30;;;;;;;5.30;100.00;100637.78;1694879;83;25448;-53
2023/12/19 01:40:32;;;;;;;31.60;17.92;;;;;;;5.28;100.00;100639.89;1685588;83;27302;-55
2023/12/19 01:43:01;;;;;;;27.05;17.50;;;;;;;5.26;100.00;100648.75;1693087;84;25850;-54
2023/12/19 01:45:30;;;;;;;28.77;16.35;;;;;;;5.23;100.00;100641.51;1703165;82;34652;-55
2023/12/19 01:47:58;;;;;;;29.50;16.40;;;;;;;5.24;100.00;100638.28;1693502;82;26223;-54
2023/12/19 01:50:26;;;;;;;30.08;17.92;;;;;;;5.23;100.00;100648.75;1706891;82;25703;-56
2023/12/19 01:52:57;;;;;;;31.82;17.32;;;;;;;5.20;100.00;100648.73;1694501;83;27352;-55
2023/12/19 01:55:30;;;;;;;23.92;16.25;;;;;;;5.20;100.00;100647.39;1715914;83;25381;-57
2023/12/19 01:57:59;;;;;;;28.15;16.95;;;;;;;5.19;100.00;100633.73;1695534;83;25673;-57
2023/12/19 02:00:27;;;;;;;26.70;15.65;;;;;;;5.18;100.00;100619.24;1700541;83;25645;-57
2023/12/19 02:02:55;;;;;;;25.95;16.45;;;;;;;5.18;100.00;100613.87;1693919;82;25810;-57
2023/12/19 02:05:22;;;;;;;29.60;16.32;;;;;;;5.15;100.00;100599.11;1689618;83;28222;-56
2023/12/19 02:07:49;;;;;;;24.05;15.35;;;;;;;5.12;100.00;100604.20;1686786;82;25448;-54
2023/12/19 02:10:17;;;;;;;24.32;14.63;;;;;;;5.10;100.00;100592.39;1706346;81;25792;-55
2023/12/19 02:12:44;;;;;;;23.02;14.45;;;;;;;5.07;100.00;100591.58;1687001;83;26353;-54
2023/12/19 02:15:14;;;;;;;24.20;14.13;;;;;;;5.05;100.00;100588.36;1690110;83;25807;-54
2023/12/19 02:17:42;;;;;;;25.70;15.03;;;;;;;5.03;100.00;100581.92;1710208;83;28095;-54
2023/12/19 02:20:10;;;;;;;25.43;15.05;;;;;;;5.00;100.00;100578.42;1678887;84;25858;-55
2023/12/19 02:22:38;;;;;;;27.52;14.40;;;;;;;4.99;100.00;100586.21;1707630;82;25456;-54
2023/12/19 02:25:06;;;;;;;21.65;13.68;;;;;;;4.99;100.00;100588.09;1706949;82;25822;-57
2023/12/19 02:27:34;;;;;;;21.23;13.50;;;;;;;4.98;100.00;100568.50;1715985;82;25882;-57
2023/12/19 02:30:02;;;;;;;22.98;13.53;;;;;;;4.98;100.00;100569.84;1693527;83;27338;-57
2023/12/19 02:32:35;;;;;;;22.90;13.25;;;;;;;4.98;100.00;100570.39;1677563;83;25825;-54
2023/12/19 02:35:03;;;;;;;22.50;12.95;;;;;;;4.96;100.00;100568.52;1715080;82;25813;-53
2023/12/19 02:37:31;;;;;;;21.37;13.28;;;;;;;4.95;100.00;100560.19;1713697;81;26342;-53
2023/12/19 02:39:58;;;;;;;20.82;12.68;;;;;;;4.94;100.00;100564.75;1715544;81;25891;-53
2023/12/19 02:42:26;;;;;;;17.77;12.58;;;;;;;4.92;100.00;100578.13;1716760;81;27539;-53
2023/12/19 02:44:54;;;;;;;20.40;12.10;;;;;;;4.91;100.00;100567.95;1701403;81;25523;-55
2023/12/19 02:47:22;;;;;;;17.45;12.05;;;;;;;4.91;100.00;100563.14;1719213;81;25817;-53
2023/12/19 02:49:49;;;;;;;19.60;12.40;;;;;;;4.89;100.00;100560.72;1720363;81;26334;-56
2023/12/19 02:52:17;;;;;;;18.20;11.90;;;;;;;4.85;100.00;100569.00;1733288;81;25513;-55
2023/12/19 02:54:45;;;;;;;18.62;11.57;;;;;;;4.83;100.00;100555.06;1722657;81;27233;-54
2023/12/19 02:57:13;;;;;;;19.75;11.08;;;;;;;4.80;100.00;100538.16;1652874;84;25880;-55
2023/12/19 03:02:45;;;;;;;19.75;11.33;;;;;;;4.76;100.00;100527.17;1684583;83;26212;-54
2023/12/19 03:05:13;;;;;;;17.25;10.80;;;;;;;4.75;100.00;100524.23;1686486;84;25620;-55
2023/12/19 03:07:39;;;;;;;17.98;10.28;;;;;;;4.75;100.00;100520.73;1657855;84;26805;-54
2023/12/19 03:10:09;;;;;;;17.15;10.88;;;;;;;4.75;100.00;100518.05;1684715;83;25932;-54
2023/12/19 03:12:37;;;;;;;18.90;10.82;;;;;;;4.75;100.00;100511.34;1686188;84;25454;-55
2023/12/19 03:15:07;;;;;;;20.92;11.20;;;;;;;4.73;100.00;100518.31;1682945;84;26155;-54
2023/12/19 03:17:34;;;;;;;19.23;11.10;;;;;;;4.73;100.00;100516.17;1657149;84;25862;-54
2023/12/19 03:20:01;;;;;;;16.87;10.25;;;;;;;4.74;100.00;100509.76;1665999;85;27536;-54
2023/12/19 03:22:30;;;;;;;17.70;10.18;;;;;;;4.73;100.00;100508.93;1664625;85;25816;-54
2023/12/19 03:24:58;;;;;;;21.77;10.58;;;;;;;4.72;100.00;100503.86;1665266;84;25755;-55
2023/12/19 03:27:26;;;;;;;20.62;10.60;;;;;;;4.72;100.00;100501.19;1679897;84;26261;-54
2023/12/19 03:29:54;;;;;;;15.65;9.78;;;;;;;4.71;100.00;100499.56;1685358;83;25845;-57
2023/12/19 03:32:21;;;;;;;15.05;10.20;;;;;;;4.69;100.00;100494.47;1667232;84;28326;-56
2023/12/19 03:34:48;;;;;;;14.03;9.60;;;;;;;4.66;100.00;100482.93;1674523;84;25557;-55
2023/12/19 03:37:16;;;;;;;16.55;10.03;;;;;;;4.63;100.00;100473.56;1680065;84;26087;-53
2023/12/19 03:39:44;;;;;;;14.80;9.53;;;;;;;4.60;100.00;100455.33;1648922;85;26334;-55
2023/12/19 03:42:12;;;;;;;17.12;9.70;;;;;;;4.56;100.00;100462.27;1655047;84;25529;-54
2023/12/19 03:44:44;;;;;;;15.85;9.55;;;;;;;4.53;100.00;100472.20;1646685;84;27735;-58
2023/12/19 03:47:13;;;;;;;17.12;10.70;;;;;;;4.52;100.00;100468.44;1659555;84;25833;-53
2023/12/19 03:49:40;;;;;;;;;;;;;;;4.48;100.00;100466.28;1645931;85;25569;-53
2023/12/19 03:52:08;;;;;;;16.02;9.48;;;;;;;4.46;100.00;100461.73;1653414;85;25777;-55
2023/12/19 03:54:42;;;;;;;16.60;9.63;;;;;;;4.44;100.00;100446.46;1644080;85;25700;-55
2023/12/19 03:57:10;;;;;;;18.48;10.00;;;;;;;4.43;100.00;100438.14;1653439;85;27315;-56
2023/12/19 03:59:37;;;;;;;17.37;9.83;;;;;;;4.44;100.00;100453.67;1671957;84;25852;-55
2023/12/19 04:02:05;;;;;;;17.52;10.53;;;;;;;4.42;100.00;100462.52;1674812;84;25581;-56
2023/12/19 04:04:33;;;;;;;18.85;9.73;;;;;;;4.43;100.00;100483.67;1676478;83;25864;-58
2023/12/19 04:07:01;;;;;;;16.37;9.88;;;;;;;4.44;100.00;100483.96;1677642;83;25809;-58
2023/12/19 04:09:29;;;;;;;15.38;9.80;;;;;;;4.44;100.00;100498.69;1675673;84;27506;-54
2023/12/19 04:12:01;;;;;;;16.23;9.35;;;;;;;4.45;100.00;100476.17;1654210;84;25995;-54
2023/12/19 04:14:27;;;;;;;16.82;9.28;;;;;;;4.47;100.00;100473.23;1676362;83;26331;-54
2023/12/19 04:16:56;;;;;;;17.95;10.05;;;;;;;4.47;100.00;100468.68;1675780;84;26661;-54
2023/12/19 04:19:24;;;;;;;15.63;9.60;;;;;;;4.51;100.00;100464.94;1686425;83;25517;-55
2023/12/19 04:21:51;;;;;;;14.07;9.00;;;;;;;4.51;100.00;100472.17;1690111;83;28020;-53
2023/12/19 04:24:19;;;;;;;16.12;9.13;;;;;;;4.52;100.00;100475.93;1678344;84;25485;-53
2023/12/19 04:26:47;;;;;;;12.73;8.88;;;;;;;4.55;100.00;100474.61;1680013;84;25890;-53
2023/12/19 04:29:16;;;;;;;14.60;8.78;;;;;;;4.56;100.00;100466.83;1674414;83;26670;-54
2023/12/19 04:31:42;;;;;;;13.58;8.53;;;;;;;4.56;100.00;100474.33;1678471;83;25820;-56
2023/12/19 04:34:09;;;;;;;15.78;9.15;;;;;;;4.58;100.00;100456.65;1676108;84;27324;-54
2023/12/19 04:36:36;;;;;;;15.95;9.00;;;;;;;4.59;100.00;100464.97;1679045;84;25930;-55
2023/12/19 04:39:04;;;;;;;13.50;8.75;;;;;;;4.60;100.00;100475.97;1676967;83;25868;-54
2023/12/19 04:41:33;;;;;;;14.07;8.80;;;;;;;4.62;100.00;100480.52;1679479;83;25996;-54
2023/12/19 04:44:00;;;;;;;14.55;8.70;;;;;;;4.62;100.00;100481.31;1677258;84;25851;-54
2023/12/19 04:46:28;;;;;;;13.13;9.00;;;;;;;4.65;100.00;100475.98;1682358;83;28423;-54
2023/12/19 04:48:57;;;;;;;17.45;9.00;;;;;;;4.67;100.00;100469.27;1639248;85;26054;-54
2023/12/19 04:51:25;;;;;;;15.20;8.63;;;;;;;4.71;100.00;100465.52;1653900;85;25867;-55
2023/12/19 04:53:53;;;;;;;12.70;8.63;;;;;;;4.74;100.00;100467.67;1674419;83;26641;-56
2023/12/19 04:56:20;;;;;;;14.87;8.30;;;;;;;4.80;100.00;100461.78;1646992;84;25503;-56
2023/12/19 04:58:47;;;;;;;14.15;8.00;;;;;;;4.84;100.00;100461.53;1653486;85;27290;-54
2023/12/19 05:01:16;;;;;;;12.23;8.05;;;;;;;4.90;100.00;100467.16;1631295;85;25847;-55
2023/12/19 05:03:44;;;;;;;12.47;7.80;;;;;;;4.95;100.00;100461.00;1646755;85;25657;-56
2023/12/19 05:06:17;;;;;;;13.78;7.90;;;;;;;4.98;99.55;100461.27;1645476;85;26124;-57
2023/12/19 05:08:49;;;;;;;12.95;8.23;;;;;;;5.02;99.67;100444.11;1650233;84;25913;-55
2023/12/19 05:11:17;;;;;;;12.63;7.90;;;;;;;5.03;97.82;100446.52;1670268;83;27708;-56
2023/12/19 05:13:45;;;;;;;13.00;7.95;;;;;;;5.07;96.55;100441.42;1670531;84;25629;-54
2023/12/19 05:16:15;;;;;;;15.10;8.13;;;;;;;5.13;96.90;100440.36;1676986;83;25763;-55
2023/12/19 05:18:45;;;;;;;13.28;8.60;;;;;;;5.20;95.32;100440.09;1681055;83;25821;-55
2023/12/19 05:21:13;;;;;;;;;;;;;;;5.25;96.18;100434.73;1671041;84;25865;-55
2023/12/19 05:23:42;;;;;;;14.13;8.63;;;;;;;5.28;94.62;100423.47;1688511;83;28560;-56
2023/12/19 05:26:09;;;;;;;11.05;7.20;;;;;;;5.31;93.73;100435.52;1661575;83;25862;-56
2023/12/19 05:28:39;;;;;;;11.57;6.97;;;;;;;5.35;93.44;100428.55;1682492;83;25890;-55
2023/12/19 05:31:07;;;;;;;;;;;;;;;5.38;94.11;100436.04;1680025;83;26635;-56
2023/12/19 05:33:37;;;;;;;15.88;7.78;;;;;;;5.39;91.55;100428.27;1680057;84;32614;-55
2023/12/19 05:36:05;;;;;;;15.15;8.55;;;;;;;5.40;89.17;100431.23;1685106;83;27510;-58
2023/12/19 05:38:33;;;;;;;14.73;8.45;;;;;;;5.45;91.67;100441.95;1671387;83;25861;-54
2023/12/19 05:41:00;;;;;;;12.15;7.87;;;;;;;5.44;90.98;100436.31;1674049;84;25423;-54
2023/12/19 05:43:28;;;;;;;16.23;7.85;;;;;;;5.48;91.06;100438.70;1657660;84;25802;-55
2023/12/19 05:45:56;;;;;;;14.15;8.23;;;;;;;5.51;90.12;100438.17;1678075;83;25896;-55
2023/12/19 05:48:25;;;;;;;13.03;7.70;;;;;;;5.54;88.65;100444.34;1682022;83;27337;-58
2023/12/19 05:50:53;;;;;;;14.70;8.40;;;;;;;5.57;89.65;100433.07;1682504;84;25849;-55
2023/12/19 05:53:20;;;;;;;14.93;7.58;;;;;;;5.60;88.29;100425.83;1632097;85;25611;-57
2023/12/19 05:55:48;;;;;;;11.53;7.33;;;;;;;5.62;88.42;100430.92;1686957;83;25876;-54
2023/12/19 05:58:15;;;;;;;11.38;7.00;;;;;;;5.66;87.23;100417.77;1681405;83;25889;-54
2023/12/19 06:00:48;;;;;;;11.20;7.53;;;;;;;5.67;87.04;100412.12;1681569;83;28522;-54
2023/12/19 06:03:16;;;;;;;15.35;8.15;;;;;;;5.69;85.51;100409.97;1645152;83;25885;-55
2023/12/19 06:05:44;;;;;;;14.23;8.10;;;;;;;5.71;85.96;100413.72;1664954;84;25842;-54
2023/12/19 06:08:12;;;;;;;13.65;7.58;;;;;;;5.73;84.29;100416.92;1646753;84;25898;-55
2023/12/19 06:10:38;;;;;;;10.75;7.05;;;;;;;5.75;84.98;100407.51;1656872;84;25644;-55
2023/12/19 06:13:06;;;;;;;13.88;7.55;;;;;;;5.77;83.19;100403.21;1675264;83;27475;-56
2023/12/19 06:15:33;;;;;;;11.53;7.85;;;;;;;5.77;85.27;100385.25;1670818;83;25942;-59
2023/12/19 06:18:00;;;;;;;13.32;7.97;;;;;;;5.78;83.93;100385.50;1655530;85;25736;-55
2023/12/19 06:20:28;;;;;;;11.63;7.72;;;;;;;5.78;84.35;100392.20;1676452;83;25875;-55
2023/12/19 06:22:56;;;;;;;14.15;7.55;;;;;;;5.82;84.69;100399.17;1660929;83;25505;-56
2023/12/19 06:25:23;;;;;;;12.58;7.78;;;;;;;5.82;84.45;100400.51;1658660;84;28261;-57
2023/12/19 06:27:52;;;;;;;11.20;8.03;;;;;;;5.84;84.68;100402.41;1672564;83;25878;-55
2023/12/19 06:30:21;;;;;;;12.60;7.25;;;;;;;5.82;83.36;100389.77;1672925;84;25816;-56
2023/12/19 06:32:48;;;;;;;12.93;7.28;;;;;;;5.85;83.39;100414.73;1680875;83;26987;-58
2023/12/19 06:35:17;;;;;;;12.25;7.75;;;;;;;5.86;82.05;100400.24;1688958;83;26371;-59
2023/12/19 06:37:44;;;;;;;10.32;7.08;;;;;;;5.88;82.24;100395.40;1680286;84;27345;-56
2023/12/19 06:40:12;;;;;;;12.85;7.85;;;;;;;5.89;81.88;100406.93;1672872;84;26023;-56
2023/12/19 06:42:39;;;;;;;12.98;7.53;;;;;;;5.92;82.42;100403.70;1658131;84;25915;-59
2023/12/19 06:45:08;;;;;;;11.10;7.40;;;;;;;5.92;82.54;100403.16;1679874;83;26012;-56
2023/12/19 06:47:35;;;;;;;13.03;7.78;;;;;;;5.92;82.49;100409.07;1686650;83;25919;-59
2023/12/19 06:50:05;;;;;;;15.08;8.65;;;;;;;5.96;82.62;100415.55;1678081;84;28145;-56
2023/12/19 06:52:33;;;;;;;15.60;8.95;;;;;;;5.94;83.35;100405.05;1680486;84;25684;-58
2023/12/19 06:55:01;;;;;;;17.27;8.83;;;;;;;5.96;83.32;100405.60;1659901;85;25866;-58
2023/12/19 06:57:27;;;;;;;13.78;8.53;;;;;;;5.95;82.82;100421.95;1655920;84;26296;-59
2023/12/19 06:59:56;;;;;;;14.55;8.58;;;;;;;5.98;83.36;100398.62;1653359;85;25886;-60
2023/12/19 07:02:23;;;;;;;17.98;8.18;;;;;;;5.98;84.29;100409.36;1657162;85;29552;-60
2023/12/19 07:04:50;;;;;;;15.88;8.45;;;;;;;5.98;84.33;100404.78;1656656;85;25892;-58
2023/12/19 07:07:17;;;;;;;15.20;8.65;;;;;;;5.96;84.52;100394.86;1639660;85;26951;-59
2023/12/19 07:09:44;;;;;;;16.42;8.95;;;;;;;5.98;84.90;100403.44;1655166;85;26781;-56
2023/12/19 07:12:11;;;;;;;15.78;8.23;;;;;;;6.00;85.11;100413.11;1635446;85;25917;-59
2023/12/19 07:14:38;;;;;;;14.25;7.97;;;;;;;6.01;84.71;100402.62;1656734;85;27368;-57
2023/12/19 07:17:05;;;;;;;18.70;8.63;;;;;;;6.01;85.29;100389.19;1664893;84;25715;-57
2023/12/19 07:19:32;;;;;;;14.98;8.63;;;;;;;6.02;85.36;100387.58;1655678;85;25840;-58
2023/12/19 07:21:59;;;;;;;13.95;8.68;;;;;;;6.05;85.75;100389.72;1659585;85;25851;-58
2023/12/19 07:24:25;;;;;;;17.60;8.40;;;;;;;6.05;85.41;100386.23;1643255;85;25835;-60
2023/12/19 07:26:59;;;;;;;13.70;8.20;;;;;;;6.05;84.90;100395.64;1655706;85;28077;-60
2023/12/19 07:29:26;;;;;;;13.80;8.48;;;;;;;6.05;85.77;100388.92;1658903;85;25435;-56
2023/12/19 07:31:53;;;;;;;14.63;8.03;;;;;;;6.06;86.17;100383.28;1655758;84;25819;-59
2023/12/19 07:34:19;;;;;;;15.28;8.38;;;;;;;6.07;86.28;100405.55;1672290;84;25935;-59
2023/12/19 07:36:47;;;;;;;15.28;8.65;;;;;;;6.06;85.50;100407.45;1682248;84;25820;-57
2023/12/19 07:39:13;;;;;;;16.77;8.60;;;;;;;6.03;86.39;100412.02;1681960;83;27326;-59
2023/12/19 07:41:40;;;;;;;14.55;8.68;;;;;;;6.02;86.70;100416.32;1679473;84;25750;-57
2023/12/19 07:44:09;;;;;;;14.55;8.83;;;;;;;6.01;86.96;100419.55;1664368;83;25876;-58
2023/12/19 07:46:42;;;;;;;17.05;9.00;;;;;;;6.01;87.17;100417.39;1678864;84;25764;-60
2023/12/19 07:49:12;;;;;;;18.73;9.05;;;;;;;6.01;87.58;100436.19;1683356;84;25846;-59
2023/12/19 07:51:39;;;;;;;15.72;8.90;;;;;;;5.97;87.46;100423.84;1678951;83;28203;-60
2023/12/19 07:54:07;;;;;;;17.25;8.48;;;;;;;5.94;87.62;100433.24;1670922;84;25883;-59
2023/12/19 07:56:33;;;;;;;16.67;9.13;;;;;;;5.93;87.82;100426.80;1650900;84;25881;-59
2023/12/19 07:59:01;;;;;;;14.75;8.53;;;;;;;5.90;87.88;100417.95;1668508;83;27730;-58
2023/12/19 08:01:28;;;;;;;16.23;8.83;;;;;;;5.90;88.11;100409.89;1678754;83;25874;-58
2023/12/19 08:03:54;;;;;;;14.70;9.35;;;;;;;5.88;88.33;100415.53;1686081;83;28304;-59
2023/12/19 08:06:21;;;;;;;17.82;9.55;;;;;;;5.90;88.61;100400.49;1692303;83;25865;-58
2023/12/19 08:08:50;;;;;;;21.52;9.20;;;;;;;5.90;88.53;100395.12;1693249;83;25519;-59
2023/12/19 08:11:18;;;;;;;16.85;9.60;;;;;;;5.90;88.84;100393.78;1686662;84;25929;-58
2023/12/19 08:13:44;;;;;;;23.98;10.50;;;;;;;5.89;88.90;100402.38;1693284;82;25820;-59
2023/12/19 08:16:11;;;;;;;16.10;9.55;;;;;;;5.90;89.10;100402.63;1685318;83;27432;-59
2023/12/19 08:18:38;;;;;;;17.73;10.18;;;;;;;5.91;89.05;100399.43;1684228;83;26044;-58
2023/12/19 08:21:05;;;;;;;17.60;9.85;;;;;;;5.92;89.27;100396.98;1660256;84;25534;-58
2023/12/19 08:23:33;;;;;;;21.48;9.85;;;;;;;5.91;88.92;100408.83;1671522;83;26554;-57
2023/12/19 08:25:59;;;;;;;16.75;9.45;;;;;;;5.92;89.13;100403.70;1678558;83;25516;-60
2023/12/19 08:28:27;;;;;;;18.32;9.15;;;;;;;5.91;89.54;100401.56;1692108;83;28117;-60
2023/12/19 08:30:54;;;;;;;17.07;9.75;;;;;;;5.93;89.10;100402.63;1682613;83;25866;-60
2023/12/19 08:33:22;;;;;;;16.05;8.98;;;;;;;5.93;89.37;100400.74;1683642;83;25784;-58
2023/12/19 08:35:49;;;;;;;11.73;8.08;;;;;;;5.95;89.21;100401.27;1683358;83;26411;-59
2023/12/19 08:38:16;;;;;;;15.40;8.35;;;;;;;5.96;88.84;100402.91;1695144;83;25895;-59
2023/12/19 08:40:45;;;;;;;18.42;9.18;;;;;;;5.97;89.01;100394.31;1687287;83;27647;-58
2023/12/19 08:43:12;;;;;;;17.07;9.10;;;;;;;5.99;89.30;100394.83;1680730;83;30161;-55
2023/12/19 08:45:39;;;;;;;14.28;8.80;;;;;;;6.04;88.77;100403.41;1685634;84;25788;-60
2023/12/19 08:48:08;;;;;;;14.45;9.45;;;;;;;6.07;89.40;100394.81;1683818;83;26084;-58
2023/12/19 08:50:34;;;;;;;17.80;9.27;;;;;;;6.10;88.74;100374.12;1688928;83;25453;-59
2023/12/19 08:53:01;;;;;;;15.32;9.03;;;;;;;6.12;89.28;100370.06;1681981;83;27325;-59
2023/12/19 08:55:30;;;;;;;16.32;8.78;;;;;;;6.16;88.30;100367.62;1694851;83;25933;-60
2023/12/19 08:57:57;;;;;;;13.68;8.80;;;;;;;6.17;88.82;100370.59;1684509;83;25454;-58
2023/12/19 09:00:24;;;;;;;18.35;9.65;;;;;;;6.20;88.97;100374.59;1670545;83;26661;-59
2023/12/19 09:02:51;;;;;;;16.40;8.40;;;;;;;6.25;89.47;100371.88;1675395;83;25815;-61
2023/12/19 09:05:21;;;;;;;13.58;8.88;;;;;;;6.29;88.98;100371.05;1678665;83;28001;-59
2023/12/19 09:07:47;;;;;;;;;;;;;;;6.34;89.26;100374.25;1687488;83;25842;-60
2023/12/19 09:10:15;;;;;;;15.18;8.58;;;;;;;6.38;89.20;100373.16;1687926;83;26008;-59
2023/12/19 09:12:42;;;;;;;15.15;8.48;;;;;;;6.40;89.49;100376.36;1680010;84;25837;-60
2023/12/19 09:15:10;;;;;;;13.75;8.60;;;;;;;6.45;89.41;100354.83;1684996;83;25464;-60
2023/12/19 09:17:39;;;;;;;15.75;8.73;;;;;;;6.49;89.07;100353.20;1662185;85;28229;-61
2023/12/19 09:20:10;;;;;;;15.23;8.85;;;;;;;6.51;88.75;100355.86;1657585;85;26230;-60
2023/12/19 09:22:36;;;;;;;13.45;8.43;;;;;;;6.52;88.34;100361.50;1652398;86;25807;-60
2023/12/19 09:25:13;;;;;;;15.40;9.13;;;;;;;6.53;88.67;100355.58;1656982;85;26009;-61
2023/12/19 09:27:33;;;;;;;13.08;9.03;;;;;;;6.54;88.85;100346.45;1657892;85;25883;-61
2023/12/19 09:30:00;;;;;;;16.70;9.18;;;;;;;6.56;88.55;100345.62;1664224;85;28190;-63
2023/12/19 09:32:27;;;;;;;17.12;8.85;;;;;;;6.57;88.39;100341.03;1655937;84;25853;-61
2023/12/19 09:34:54;;;;;;;14.55;9.10;;;;;;;6.57;88.15;100330.28;1656998;85;25872;-61
2023/12/19 09:37:26;;;;;;;15.95;8.50;;;;;;;6.58;88.17;100331.91;1651032;85;26643;-61
2023/12/19 09:39:51;;;;;;;19.37;9.20;;;;;;;6.59;88.46;100334.83;1667293;85;25513;-60
2023/12/19 09:42:19;;;;;;;14.65;9.38;;;;;;;6.59;88.39;100324.08;1660132;85;27471;-61
2023/12/19 09:44:51;;;;;;;14.20;8.68;;;;;;;6.62;88.35;100331.59;1660943;84;25658;-61
2023/12/19 09:47:25;;;;;;;15.58;9.25;;;;;;;6.64;88.65;100336.96;1658819;85;25848;-61
2023/12/19 09:49:59;;;;;;;16.75;8.95;;;;;;;6.67;88.83;100324.83;1661240;85;26303;-61
2023/12/19 09:52:28;;;;;;;14.83;8.38;;;;;;;6.70;88.78;100334.47;1651932;85;26419;-61
2023/12/19 09:54:55;;;;;;;17.57;8.85;;;;;;;6.72;88.63;100330.98;1654480;83;27343;-60
2023/12/19 09:57:24;;;;;;;16.00;8.68;;;;;;;6.75;88.76;100327.47;1694368;83;25968;-60
2023/12/19 09:59:54;;;;;;;15.03;8.83;;;;;;;6.80;88.56;100326.87;1688518;83;25869;-62
2023/12/19 10:02:21;;;;;;;12.78;7.85;;;;;;;6.80;88.31;100320.15;1688720;83;25729;-61
2023/12/19 10:04:49;;;;;;;17.17;9.18;;;;;;;6.82;88.04;100315.84;1683230;84;25512;-63
2023/12/19 10:07:17;;;;;;;13.72;8.98;;;;;;;6.84;87.97;100296.98;1685108;83;27463;-62
2023/12/19 10:09:58;;;;;;;12.60;7.85;;;;;;;6.89;88.55;100304.20;1691045;83;25537;-59
2023/12/19 10:12:27;;;;;;;13.18;7.72;;;;;;;6.92;88.15;100307.67;1663255;84;25819;-61
2023/12/19 10:15:12;;;;;;;11.08;7.97;;;;;;;6.94;87.53;100304.15;1674848;84;26028;-63
2023/12/19 10:17:40;;;;;;;11.97;8.03;;;;;;;6.97;88.05;100302.80;1686578;83;25849;-61
2023/12/19 10:20:12;;;;;;;12.90;9.05;;;;;;;7.03;88.50;100308.36;1678168;84;27315;-60
2023/12/19 10:22:40;;;;;;;14.73;8.30;;;;;;;7.05;88.12;100298.94;1687943;83;26008;-63
2023/12/19 10:25:09;;;;;;;14.23;8.95;;;;;;;7.09;87.42;100293.78;1689759;83;25795;-60
2023/12/19 10:27:35;;;;;;;14.60;8.53;;;;;;;7.11;88.19;100289.71;1682048;83;26491;-61
2023/12/19 10:30:21;;;;;;;13.90;8.80;;;;;;;7.19;88.09;100283.47;1688412;83;25438;-62
2023/12/19 10:32:47;;;;;;;15.20;8.80;;;;;;;7.25;88.07;100305.17;1692302;83;27486;-60
2023/12/19 10:35:15;;;;;;;14.93;9.20;;;;;;;7.24;87.10;100313.80;1686676;83;25614;-61
2023/12/19 10:37:42;;;;;;;11.63;8.08;;;;;;;7.23;86.83;100304.66;1682736;84;25824;-60
2023/12/19 10:40:14;;;;;;;13.95;8.78;;;;;;;7.21;87.04;100307.63;1689979;83;26027;-59
2023/12/19 10:42:41;;;;;;;14.55;9.10;;;;;;;7.19;86.22;100305.78;1682743;83;25762;-59
2023/12/19 10:45:10;;;;;;;16.05;8.55;;;;;;;7.18;86.98;100300.69;1675037;83;27464;-60
2023/12/19 10:47:36;;;;;;;11.40;8.08;;;;;;;7.17;86.83;100288.31;1656569;84;25745;-58
2023/12/19 10:50:04;;;;;;;14.33;9.00;;;;;;;7.15;86.58;100277.04;1678889;83;25750;-59
2023/12/19 10:52:34;;;;;;;13.95;8.58;;;;;;;7.14;86.85;100259.31;1673353;83;25906;-59
2023/12/19 10:55:11;;;;;;;10.90;8.28;;;;;;;7.15;87.06;100252.83;1686177;83;25417;-58
2023/12/19 10:57:41;;;;;;;11.65;8.20;;;;;;;7.17;87.19;100238.55;1669622;84;27721;-54
2023/12/19 11:00:22;;;;;;;14.53;8.68;;;;;;;7.18;87.03;100225.36;1652603;83;25903;-60
2023/12/19 11:03:14;;;;;;;14.55;8.98;;;;;;;7.19;87.23;100225.08;1683133;83;25484;-58
2023/12/19 11:05:46;;;;;;;12.93;8.90;;;;;;;7.22;87.20;100198.12;1680511;83;25813;-61
2023/12/19 11:08:17;;;;;;;13.10;8.80;;;;;;;7.23;87.39;100188.98;1691844;83;25866;-59
2023/12/19 11:10:52;;;;;;;14.18;9.03;;;;;;;7.23;87.15;100187.08;1687962;83;27358;-59
2023/12/19 11:13:20;;;;;;;13.30;8.93;;;;;;;7.23;87.12;100195.15;1687844;83;26059;-60
2023/12/19 11:15:55;;;;;;;15.25;8.93;;;;;;;7.22;87.50;100197.61;1701299;83;25775;-60
2023/12/19 11:18:40;;;;;;;13.93;8.38;;;;;;;7.28;87.55;100194.30;1696032;83;25862;-60
2023/12/19 11:21:23;;;;;;;14.00;8.58;;;;;;;7.30;87.26;100201.52;1675342;83;26162;-60
2023/12/19 11:24:22;;;;;;;13.03;9.00;;;;;;;7.29;87.13;100210.70;1677050;83;27333;-59
2023/12/19 11:27:16;;;;;;;10.80;8.00;;;;;;;7.32;87.72;100213.34;1674978;83;25785;-59
2023/12/19 11:29:56;;;;;;;13.88;8.50;;;;;;;7.33;87.75;100216.31;1685580;83;25450;-61